Peach Orchard, Missouri
Current Conditions -  °F | °C
As of 10:53 PM on Friday 28 Nov 2014 (Local Time) from KPOF Reporting Station
Clear Clear  
Wind Chill:   Ceiling: Unl
Heat Index:   Visibility: 10mi
Dew Point:   Wind: 6mph
Humidity: 70%   Direction: 190°S
Pressure: 30"   Gusts: NA
Location:  36.4472°N, 89.9037°W
Report Text: KPOF 290453Z AUTO 19005KT 10SM CLR 05/00 A3000 RMK AO2 SLP161 T00500000
Loading
Personal Weather Stations






























Interactive Weather Map New forecast layout! Learn more

10-Day Weather Forecast

Advertisements
Track Severe Weather on mobile